ウランバートル の空港の天気 - METARとTAF

チンギスハーン国際空港 ( ZMUB / ULN ) - モンゴル ウランバートル
飛行場実況気象(Metar)
観測時間08/05 04:00 ULAT (08/04 20:00 UTC)
風向・風速不定 1m/s
視程10km以上
天気現象
少しの雲 雲底高度 1010m
全天の4割程度の雲 雲底高度 3050m
気温13℃
湿度88%
気圧1014hPa
METARZMUB 042000Z VRB01MPS 9999 FEW033 SCT100 13/11 Q1014 NOSIG RMK QFE653.5 85 NT
過去の天気等 Google飛行場航空写真 Wunderground天気予報

過去48時間のMETAR

飛行場予報(TAF)
発表時間: 8/05 01:01 ULAT (8/04 17:01 UTC)
予報対象時間: 5日2時 ULAT ~ 6日8時 ULAT
風向・風速不定 2m/s
視程10km以上
少しの積乱雲 雲底高度 910m
全天の4割程度の雲 雲底高度 1010m
5日12時 ULAT ~ 5日15時 ULAT に徐々に
風向・風速西南西 5m/s
5日14時 ULAT ~ 5日24時 ULAT に 確率 40% で一時的に
風向・風速不定 8m/s
天気現象雷雨
全天の4割程度の積乱雲 雲底高度 910m
全天の4割程度の雲 雲底高度 1010m
5日18時 ULAT ~ 5日20時 ULAT に徐々に
風向・風速不定 2m/s
TAF ZMUB 041701Z 0418/0524 VRB02MPS 9999 FEW030CB SCT033 TN11/0421Z TX27/0507Z
BECMG 0504/0507 24005MPS
PROB40 TEMPO 0506/0516 VRB08MPS TSRA SCT030CB SCT033
BECMG 0510/0512 VRB02MPS